sensor_id;sensor_type;location;lat;lon;timestamp;P1;durP1;ratioP1;P2;durP2;ratioP2
82722;SDS011;72450;42.008;21.356;2023-09-07T00:01:08;13.80;;;7.90;;
82722;SDS011;72450;42.008;21.356;2023-09-07T00:03:35;10.60;;;8.15;;
82722;SDS011;72450;42.008;21.356;2023-09-07T00:06:06;9.93;;;7.63;;
82722;SDS011;72450;42.008;21.356;2023-09-07T00:08:32;10.48;;;7.93;;
82722;SDS011;72450;42.008;21.356;2023-09-07T00:11:08;9.05;;;7.97;;
82722;SDS011;72450;42.008;21.356;2023-09-07T00:13:35;9.20;;;7.47;;
82722;SDS011;72450;42.008;21.356;2023-09-07T00:16:04;11.30;;;7.72;;
82722;SDS011;72450;42.008;21.356;2023-09-07T00:18:30;11.57;;;8.32;;
82722;SDS011;72450;42.008;21.356;2023-09-07T00:20:57;13.35;;;8.27;;
82722;SDS011;72450;42.008;21.356;2023-09-07T00:23:24;10.20;;;8.10;;
82722;SDS011;72450;42.008;21.356;2023-09-07T00:25:50;10.15;;;7.82;;
82722;SDS011;72450;42.008;21.356;2023-09-07T00:28:16;8.95;;;7.70;;
82722;SDS011;72450;42.008;21.356;2023-09-07T00:30:42;9.13;;;7.55;;
82722;SDS011;72450;42.008;21.356;2023-09-07T00:33:08;17.02;;;8.30;;
82722;SDS011;72450;42.008;21.356;2023-09-07T00:35:34;12.63;;;8.02;;
82722;SDS011;72450;42.008;21.356;2023-09-07T00:38:00;10.52;;;8.18;;
82722;SDS011;72450;42.008;21.356;2023-09-07T00:40:27;9.85;;;7.72;;
82722;SDS011;72450;42.008;21.356;2023-09-07T00:42:53;10.77;;;8.57;;
82722;SDS011;72450;42.008;21.356;2023-09-07T00:47:45;11.93;;;8.57;;
82722;SDS011;72450;42.008;21.356;2023-09-07T00:50:11;11.77;;;7.53;;
82722;SDS011;72450;42.008;21.356;2023-09-07T00:52:42;12.23;;;8.38;;
82722;SDS011;72450;42.008;21.356;2023-09-07T00:55:08;11.65;;;8.13;;
82722;SDS011;72450;42.008;21.356;2023-09-07T00:57:35;12.43;;;8.65;;
82722;SDS011;72450;42.008;21.356;2023-09-07T01:00:02;12.77;;;8.20;;
82722;SDS011;72450;42.008;21.356;2023-09-07T01:02:28;12.38;;;8.23;;
82722;SDS011;72450;42.008;21.356;2023-09-07T01:04:56;9.93;;;8.27;;
82722;SDS011;72450;42.008;21.356;2023-09-07T01:07:26;11.25;;;7.47;;
82722;SDS011;72450;42.008;21.356;2023-09-07T01:09:59;9.93;;;8.23;;
82722;SDS011;72450;42.008;21.356;2023-09-07T01:12:26;12.30;;;8.18;;
82722;SDS011;72450;42.008;21.356;2023-09-07T01:14:52;10.07;;;8.00;;
82722;SDS011;72450;42.008;21.356;2023-09-07T01:17:18;10.13;;;7.82;;
82722;SDS011;72450;42.008;21.356;2023-09-07T01:19:46;9.77;;;7.80;;
82722;SDS011;72450;42.008;21.356;2023-09-07T01:22:15;10.65;;;7.90;;
82722;SDS011;72450;42.008;21.356;2023-09-07T01:24:42;10.70;;;8.30;;
82722;SDS011;72450;42.008;21.356;2023-09-07T01:27:08;11.73;;;8.30;;
82722;SDS011;72450;42.008;21.356;2023-09-07T01:29:35;14.23;;;9.18;;
82722;SDS011;72450;42.008;21.356;2023-09-07T01:32:02;9.43;;;7.95;;
82722;SDS011;72450;42.008;21.356;2023-09-07T01:34:29;11.40;;;8.10;;
82722;SDS011;72450;42.008;21.356;2023-09-07T01:36:55;13.75;;;9.13;;
82722;SDS011;72450;42.008;21.356;2023-09-07T01:39:21;9.80;;;8.32;;
82722;SDS011;72450;42.008;21.356;2023-09-07T01:41:47;13.70;;;8.50;;
82722;SDS011;72450;42.008;21.356;2023-09-07T01:44:13;11.45;;;8.38;;
82722;SDS011;72450;42.008;21.356;2023-09-07T01:46:39;15.60;;;7.95;;
82722;SDS011;72450;42.008;21.356;2023-09-07T01:49:05;13.25;;;7.65;;
82722;SDS011;72450;42.008;21.356;2023-09-07T01:51:31;14.55;;;8.55;;
82722;SDS011;72450;42.008;21.356;2023-09-07T01:56:24;10.70;;;7.90;;
82722;SDS011;72450;42.008;21.356;2023-09-07T01:58:50;13.75;;;8.07;;
82722;SDS011;72450;42.008;21.356;2023-09-07T02:01:30;11.30;;;8.15;;
82722;SDS011;72450;42.008;21.356;2023-09-07T02:03:56;10.55;;;8.13;;
82722;SDS011;72450;42.008;21.356;2023-09-07T02:06:22;11.50;;;8.18;;
82722;SDS011;72450;42.008;21.356;2023-09-07T02:08:48;14.63;;;9.15;;
82722;SDS011;72450;42.008;21.356;2023-09-07T02:11:15;13.13;;;8.98;;
82722;SDS011;72450;42.008;21.356;2023-09-07T02:13:41;13.73;;;8.85;;
82722;SDS011;72450;42.008;21.356;2023-09-07T02:16:08;10.15;;;7.63;;
82722;SDS011;72450;42.008;21.356;2023-09-07T02:18:34;11.52;;;8.73;;
82722;SDS011;72450;42.008;21.356;2023-09-07T02:21:04;10.40;;;8.13;;
82722;SDS011;72450;42.008;21.356;2023-09-07T02:23:30;11.65;;;8.23;;
82722;SDS011;72450;42.008;21.356;2023-09-07T02:25:57;9.55;;;7.97;;
82722;SDS011;72450;42.008;21.356;2023-09-07T02:28:23;10.18;;;8.02;;
82722;SDS011;72450;42.008;21.356;2023-09-07T02:33:15;9.13;;;7.63;;
82722;SDS011;72450;42.008;21.356;2023-09-07T02:35:42;11.18;;;7.60;;
82722;SDS011;72450;42.008;21.356;2023-09-07T02:38:08;9.88;;;7.88;;
82722;SDS011;72450;42.008;21.356;2023-09-07T02:40:40;8.82;;;7.90;;
82722;SDS011;72450;42.008;21.356;2023-09-07T02:43:10;11.63;;;8.68;;
82722;SDS011;72450;42.008;21.356;2023-09-07T02:45:36;8.93;;;7.32;;
82722;SDS011;72450;42.008;21.356;2023-09-07T02:48:03;10.38;;;7.97;;
82722;SDS011;72450;42.008;21.356;2023-09-07T02:50:30;10.30;;;7.97;;
82722;SDS011;72450;42.008;21.356;2023-09-07T02:55:22;10.00;;;7.57;;
82722;SDS011;72450;42.008;21.356;2023-09-07T02:57:48;10.30;;;7.72;;
82722;SDS011;72450;42.008;21.356;2023-09-07T03:00:14;9.65;;;7.82;;
82722;SDS011;72450;42.008;21.356;2023-09-07T03:02:42;8.75;;;7.85;;
82722;SDS011;72450;42.008;21.356;2023-09-07T03:05:08;11.43;;;7.82;;
82722;SDS011;72450;42.008;21.356;2023-09-07T03:07:34;14.15;;;8.30;;
82722;SDS011;72450;42.008;21.356;2023-09-07T03:10:01;14.68;;;8.85;;
82722;SDS011;72450;42.008;21.356;2023-09-07T03:12:27;11.77;;;9.40;;
82722;SDS011;72450;42.008;21.356;2023-09-07T03:14:53;12.07;;;8.93;;
82722;SDS011;72450;42.008;21.356;2023-09-07T03:17:19;15.50;;;8.45;;
82722;SDS011;72450;42.008;21.356;2023-09-07T03:19:49;13.90;;;9.30;;
82722;SDS011;72450;42.008;21.356;2023-09-07T03:22:15;14.07;;;9.15;;
82722;SDS011;72450;42.008;21.356;2023-09-07T03:24:41;11.63;;;8.63;;
82722;SDS011;72450;42.008;21.356;2023-09-07T03:27:07;9.85;;;8.63;;
82722;SDS011;72450;42.008;21.356;2023-09-07T03:29:33;11.60;;;8.80;;
82722;SDS011;72450;42.008;21.356;2023-09-07T03:32:00;13.68;;;9.80;;
82722;SDS011;72450;42.008;21.356;2023-09-07T03:34:26;12.82;;;9.38;;
82722;SDS011;72450;42.008;21.356;2023-09-07T03:36:53;16.88;;;9.85;;
82722;SDS011;72450;42.008;21.356;2023-09-07T03:39:19;10.95;;;8.35;;
82722;SDS011;72450;42.008;21.356;2023-09-07T03:41:47;9.13;;;7.90;;
82722;SDS011;72450;42.008;21.356;2023-09-07T03:44:13;9.35;;;8.15;;
82722;SDS011;72450;42.008;21.356;2023-09-07T03:46:39;14.38;;;8.65;;
82722;SDS011;72450;42.008;21.356;2023-09-07T03:49:05;11.50;;;9.35;;
82722;SDS011;72450;42.008;21.356;2023-09-07T03:51:31;9.63;;;8.15;;
82722;SDS011;72450;42.008;21.356;2023-09-07T03:53:58;11.43;;;8.20;;
82722;SDS011;72450;42.008;21.356;2023-09-07T03:56:24;11.23;;;8.60;;
82722;SDS011;72450;42.008;21.356;2023-09-07T03:58:50;10.73;;;7.97;;
82722;SDS011;72450;42.008;21.356;2023-09-07T04:01:16;10.30;;;7.55;;
82722;SDS011;72450;42.008;21.356;2023-09-07T04:03:42;9.73;;;8.65;;
82722;SDS011;72450;42.008;21.356;2023-09-07T04:06:08;12.88;;;8.38;;
82722;SDS011;72450;42.008;21.356;2023-09-07T04:08:34;9.57;;;8.27;;
82722;SDS011;72450;42.008;21.356;2023-09-07T04:11:04;10.77;;;9.20;;
82722;SDS011;72450;42.008;21.356;2023-09-07T04:13:31;15.77;;;8.60;;
82722;SDS011;72450;42.008;21.356;2023-09-07T04:15:57;13.82;;;9.23;;
82722;SDS011;72450;42.008;21.356;2023-09-07T04:18:23;12.57;;;9.40;;
82722;SDS011;72450;42.008;21.356;2023-09-07T04:20:49;10.75;;;8.88;;
82722;SDS011;72450;42.008;21.356;2023-09-07T04:23:15;16.08;;;9.20;;
82722;SDS011;72450;42.008;21.356;2023-09-07T04:25:41;11.13;;;8.93;;
82722;SDS011;72450;42.008;21.356;2023-09-07T04:28:08;12.57;;;8.80;;
82722;SDS011;72450;42.008;21.356;2023-09-07T04:30:37;10.35;;;8.88;;
82722;SDS011;72450;42.008;21.356;2023-09-07T04:33:04;12.98;;;9.35;;
82722;SDS011;72450;42.008;21.356;2023-09-07T04:35:30;10.35;;;8.95;;
82722;SDS011;72450;42.008;21.356;2023-09-07T04:37:57;13.35;;;10.88;;
82722;SDS011;72450;42.008;21.356;2023-09-07T04:40:23;11.73;;;9.23;;
82722;SDS011;72450;42.008;21.356;2023-09-07T04:42:49;13.13;;;10.13;;
82722;SDS011;72450;42.008;21.356;2023-09-07T04:45:15;13.13;;;10.95;;
82722;SDS011;72450;42.008;21.356;2023-09-07T04:50:08;13.63;;;10.38;;
82722;SDS011;72450;42.008;21.356;2023-09-07T04:52:34;16.13;;;10.55;;
82722;SDS011;72450;42.008;21.356;2023-09-07T04:55:00;14.55;;;10.40;;
82722;SDS011;72450;42.008;21.356;2023-09-07T04:57:27;23.48;;;13.57;;
82722;SDS011;72450;42.008;21.356;2023-09-07T04:59:53;20.05;;;11.85;;
82722;SDS011;72450;42.008;21.356;2023-09-07T05:02:19;15.07;;;11.77;;
82722;SDS011;72450;42.008;21.356;2023-09-07T05:04:45;15.85;;;11.50;;
82722;SDS011;72450;42.008;21.356;2023-09-07T05:07:11;13.55;;;10.80;;
82722;SDS011;72450;42.008;21.356;2023-09-07T05:09:37;14.02;;;11.27;;
82722;SDS011;72450;42.008;21.356;2023-09-07T05:12:03;12.07;;;10.82;;
82722;SDS011;72450;42.008;21.356;2023-09-07T05:14:29;15.25;;;11.05;;
82722;SDS011;72450;42.008;21.356;2023-09-07T05:16:56;14.85;;;11.13;;
82722;SDS011;72450;42.008;21.356;2023-09-07T05:21:48;13.50;;;10.40;;
82722;SDS011;72450;42.008;21.356;2023-09-07T05:24:14;14.48;;;11.52;;
82722;SDS011;72450;42.008;21.356;2023-09-07T05:26:43;15.88;;;11.20;;
82722;SDS011;72450;42.008;21.356;2023-09-07T05:29:11;13.52;;;10.38;;
82722;SDS011;72450;42.008;21.356;2023-09-07T05:31:37;14.18;;;9.90;;
82722;SDS011;72450;42.008;21.356;2023-09-07T05:34:04;12.77;;;9.68;;
82722;SDS011;72450;42.008;21.356;2023-09-07T05:36:30;11.57;;;9.60;;
82722;SDS011;72450;42.008;21.356;2023-09-07T05:38:56;12.88;;;10.05;;
82722;SDS011;72450;42.008;21.356;2023-09-07T05:41:22;15.13;;;9.98;;
82722;SDS011;72450;42.008;21.356;2023-09-07T05:43:48;15.40;;;9.73;;
82722;SDS011;72450;42.008;21.356;2023-09-07T05:46:14;12.55;;;9.07;;
82722;SDS011;72450;42.008;21.356;2023-09-07T05:48:40;14.10;;;10.88;;
82722;SDS011;72450;42.008;21.356;2023-09-07T05:51:06;14.20;;;10.00;;
82722;SDS011;72450;42.008;21.356;2023-09-07T05:53:32;14.87;;;10.23;;
82722;SDS011;72450;42.008;21.356;2023-09-07T05:55:58;11.27;;;8.70;;
82722;SDS011;72450;42.008;21.356;2023-09-07T05:58:24;13.98;;;8.90;;
82722;SDS011;72450;42.008;21.356;2023-09-07T06:00:50;13.82;;;9.30;;
82722;SDS011;72450;42.008;21.356;2023-09-07T06:03:16;12.25;;;8.68;;
82722;SDS011;72450;42.008;21.356;2023-09-07T06:05:42;11.88;;;8.25;;
82722;SDS011;72450;42.008;21.356;2023-09-07T06:10:35;16.00;;;9.65;;
82722;SDS011;72450;42.008;21.356;2023-09-07T06:13:01;14.52;;;9.05;;
82722;SDS011;72450;42.008;21.356;2023-09-07T06:15:28;11.80;;;8.98;;
82722;SDS011;72450;42.008;21.356;2023-09-07T06:17:54;12.40;;;8.95;;
82722;SDS011;72450;42.008;21.356;2023-09-07T06:20:20;12.30;;;8.98;;
82722;SDS011;72450;42.008;21.356;2023-09-07T06:22:46;11.23;;;8.50;;
82722;SDS011;72450;42.008;21.356;2023-09-07T06:25:14;10.38;;;8.73;;
82722;SDS011;72450;42.008;21.356;2023-09-07T06:27:40;16.83;;;8.48;;
82722;SDS011;72450;42.008;21.356;2023-09-07T06:30:06;13.43;;;8.02;;
82722;SDS011;72450;42.008;21.356;2023-09-07T06:32:32;14.18;;;9.18;;
82722;SDS011;72450;42.008;21.356;2023-09-07T06:34:58;10.90;;;8.35;;
82722;SDS011;72450;42.008;21.356;2023-09-07T06:37:24;11.85;;;9.10;;
82722;SDS011;72450;42.008;21.356;2023-09-07T06:39:51;10.02;;;7.30;;
82722;SDS011;72450;42.008;21.356;2023-09-07T06:42:17;12.63;;;8.07;;
82722;SDS011;72450;42.008;21.356;2023-09-07T06:44:43;13.25;;;9.35;;
82722;SDS011;72450;42.008;21.356;2023-09-07T06:47:10;10.80;;;7.63;;
82722;SDS011;72450;42.008;21.356;2023-09-07T06:49:37;15.23;;;8.73;;
82722;SDS011;72450;42.008;21.356;2023-09-07T06:52:03;13.55;;;9.07;;
82722;SDS011;72450;42.008;21.356;2023-09-07T06:54:29;13.05;;;9.23;;
82722;SDS011;72450;42.008;21.356;2023-09-07T06:56:55;16.20;;;9.63;;
82722;SDS011;72450;42.008;21.356;2023-09-07T06:59:21;15.90;;;9.32;;
82722;SDS011;72450;42.008;21.356;2023-09-07T07:01:47;12.10;;;8.27;;
82722;SDS011;72450;42.008;21.356;2023-09-07T07:04:13;13.40;;;10.18;;
82722;SDS011;72450;42.008;21.356;2023-09-07T07:06:39;11.75;;;9.18;;
82722;SDS011;72450;42.008;21.356;2023-09-07T07:09:06;15.98;;;9.05;;
82722;SDS011;72450;42.008;21.356;2023-09-07T07:11:32;16.13;;;10.00;;
82722;SDS011;72450;42.008;21.356;2023-09-07T07:13:58;17.23;;;9.57;;
82722;SDS011;72450;42.008;21.356;2023-09-07T07:16:25;10.70;;;8.80;;
82722;SDS011;72450;42.008;21.356;2023-09-07T07:18:51;15.35;;;8.77;;
82722;SDS011;72450;42.008;21.356;2023-09-07T07:21:17;13.40;;;7.82;;
82722;SDS011;72450;42.008;21.356;2023-09-07T07:23:43;8.55;;;6.97;;
82722;SDS011;72450;42.008;21.356;2023-09-07T07:26:09;12.20;;;8.50;;
82722;SDS011;72450;42.008;21.356;2023-09-07T07:28:35;11.95;;;7.93;;
82722;SDS011;72450;42.008;21.356;2023-09-07T07:31:10;11.68;;;8.30;;
82722;SDS011;72450;42.008;21.356;2023-09-07T07:33:36;9.95;;;7.53;;
82722;SDS011;72450;42.008;21.356;2023-09-07T07:36:04;8.98;;;7.50;;
82722;SDS011;72450;42.008;21.356;2023-09-07T07:38:30;11.43;;;8.05;;
82722;SDS011;72450;42.008;21.356;2023-09-07T07:40:56;11.95;;;8.07;;
82722;SDS011;72450;42.008;21.356;2023-09-07T07:43:22;9.88;;;8.00;;
82722;SDS011;72450;42.008;21.356;2023-09-07T07:45:48;11.52;;;7.85;;
82722;SDS011;72450;42.008;21.356;2023-09-07T07:48:15;9.27;;;7.47;;
82722;SDS011;72450;42.008;21.356;2023-09-07T07:50:41;9.38;;;7.22;;
82722;SDS011;72450;42.008;21.356;2023-09-07T07:53:07;13.80;;;7.93;;
82722;SDS011;72450;42.008;21.356;2023-09-07T07:55:34;11.32;;;7.47;;
82722;SDS011;72450;42.008;21.356;2023-09-07T07:58:04;11.88;;;8.00;;
82722;SDS011;72450;42.008;21.356;2023-09-07T08:00:32;7.88;;;7.07;;
82722;SDS011;72450;42.008;21.356;2023-09-07T08:05:25;11.75;;;8.20;;
82722;SDS011;72450;42.008;21.356;2023-09-07T08:07:51;10.75;;;7.43;;
82722;SDS011;72450;42.008;21.356;2023-09-07T08:10:18;11.18;;;7.50;;
82722;SDS011;72450;42.008;21.356;2023-09-07T08:12:44;12.77;;;7.57;;
82722;SDS011;72450;42.008;21.356;2023-09-07T08:15:10;11.68;;;7.20;;
82722;SDS011;72450;42.008;21.356;2023-09-07T08:17:37;10.30;;;7.65;;
82722;SDS011;72450;42.008;21.356;2023-09-07T08:20:03;11.10;;;8.13;;
82722;SDS011;72450;42.008;21.356;2023-09-07T08:22:29;9.82;;;8.05;;
82722;SDS011;72450;42.008;21.356;2023-09-07T08:24:55;11.15;;;7.90;;
82722;SDS011;72450;42.008;21.356;2023-09-07T08:27:22;12.77;;;7.45;;
82722;SDS011;72450;42.008;21.356;2023-09-07T08:29:48;10.93;;;7.57;;
82722;SDS011;72450;42.008;21.356;2023-09-07T08:32:16;13.93;;;8.65;;
82722;SDS011;72450;42.008;21.356;2023-09-07T08:34:42;9.43;;;7.47;;
82722;SDS011;72450;42.008;21.356;2023-09-07T08:37:08;11.00;;;8.15;;
82722;SDS011;72450;42.008;21.356;2023-09-07T08:39:35;11.55;;;7.72;;
82722;SDS011;72450;42.008;21.356;2023-09-07T08:42:04;9.70;;;6.63;;
82722;SDS011;72450;42.008;21.356;2023-09-07T08:44:32;9.40;;;7.05;;
82722;SDS011;72450;42.008;21.356;2023-09-07T08:46:58;10.38;;;7.05;;
82722;SDS011;72450;42.008;21.356;2023-09-07T08:49:25;9.85;;;7.43;;
82722;SDS011;72450;42.008;21.356;2023-09-07T08:51:51;13.18;;;7.55;;
82722;SDS011;72450;42.008;21.356;2023-09-07T08:54:18;9.40;;;6.70;;
82722;SDS011;72450;42.008;21.356;2023-09-07T08:56:45;10.93;;;7.20;;
82722;SDS011;72450;42.008;21.356;2023-09-07T08:59:11;9.63;;;6.50;;
82722;SDS011;72450;42.008;21.356;2023-09-07T09:01:39;13.65;;;7.70;;
82722;SDS011;72450;42.008;21.356;2023-09-07T09:04:05;10.95;;;6.72;;
82722;SDS011;72450;42.008;21.356;2023-09-07T09:06:31;9.77;;;7.10;;
82722;SDS011;72450;42.008;21.356;2023-09-07T09:08:57;9.25;;;7.65;;
82722;SDS011;72450;42.008;21.356;2023-09-07T09:11:24;9.88;;;7.43;;
82722;SDS011;72450;42.008;21.356;2023-09-07T09:13:51;9.30;;;6.93;;
82722;SDS011;72450;42.008;21.356;2023-09-07T09:16:17;9.38;;;6.82;;
82722;SDS011;72450;42.008;21.356;2023-09-07T09:21:19;8.85;;;6.82;;
82722;SDS011;72450;42.008;21.356;2023-09-07T09:23:47;12.70;;;6.68;;
82722;SDS011;72450;42.008;21.356;2023-09-07T09:26:13;8.98;;;7.38;;
82722;SDS011;72450;42.008;21.356;2023-09-07T09:28:39;9.98;;;6.90;;
82722;SDS011;72450;42.008;21.356;2023-09-07T09:31:06;8.70;;;6.90;;
82722;SDS011;72450;42.008;21.356;2023-09-07T09:33:37;8.50;;;7.07;;
82722;SDS011;72450;42.008;21.356;2023-09-07T09:36:03;8.60;;;6.63;;
82722;SDS011;72450;42.008;21.356;2023-09-07T09:38:34;8.68;;;6.57;;
82722;SDS011;72450;42.008;21.356;2023-09-07T09:41:00;8.07;;;6.85;;
82722;SDS011;72450;42.008;21.356;2023-09-07T09:43:28;10.80;;;7.20;;
82722;SDS011;72450;42.008;21.356;2023-09-07T09:45:54;7.28;;;6.57;;
82722;SDS011;72450;42.008;21.356;2023-09-07T09:48:21;8.18;;;6.97;;
82722;SDS011;72450;42.008;21.356;2023-09-07T09:53:14;9.85;;;6.32;;
82722;SDS011;72450;42.008;21.356;2023-09-07T09:55:44;8.05;;;7.03;;
82722;SDS011;72450;42.008;21.356;2023-09-07T09:58:11;10.30;;;7.10;;
82722;SDS011;72450;42.008;21.356;2023-09-07T10:03:05;9.10;;;6.85;;
82722;SDS011;72450;42.008;21.356;2023-09-07T10:05:32;13.88;;;6.55;;
82722;SDS011;72450;42.008;21.356;2023-09-07T10:08:07;8.60;;;6.43;;
82722;SDS011;72450;42.008;21.356;2023-09-07T10:10:35;8.75;;;6.60;;
82722;SDS011;72450;42.008;21.356;2023-09-07T10:13:02;10.80;;;6.75;;
82722;SDS011;72450;42.008;21.356;2023-09-07T10:15:28;8.48;;;7.35;;
82722;SDS011;72450;42.008;21.356;2023-09-07T10:18:14;9.90;;;6.75;;
82722;SDS011;72450;42.008;21.356;2023-09-07T10:20:49;8.15;;;6.50;;
82722;SDS011;72450;42.008;21.356;2023-09-07T10:23:15;8.70;;;6.60;;
82722;SDS011;72450;42.008;21.356;2023-09-07T10:25:41;8.27;;;6.68;;
82722;SDS011;72450;42.008;21.356;2023-09-07T10:28:20;10.90;;;6.53;;
82722;SDS011;72450;42.008;21.356;2023-09-07T10:30:57;9.35;;;6.45;;
82722;SDS011;72450;42.008;21.356;2023-09-07T10:33:23;8.80;;;6.53;;
82722;SDS011;72450;42.008;21.356;2023-09-07T10:35:49;8.52;;;7.30;;
82722;SDS011;72450;42.008;21.356;2023-09-07T10:38:15;9.30;;;7.03;;
82722;SDS011;72450;42.008;21.356;2023-09-07T10:40:42;12.18;;;7.20;;
82722;SDS011;72450;42.008;21.356;2023-09-07T10:43:10;8.00;;;6.07;;
82722;SDS011;72450;42.008;21.356;2023-09-07T10:45:36;10.45;;;7.35;;
82722;SDS011;72450;42.008;21.356;2023-09-07T10:48:03;9.40;;;7.45;;
82722;SDS011;72450;42.008;21.356;2023-09-07T10:52:55;8.15;;;6.72;;
82722;SDS011;72450;42.008;21.356;2023-09-07T10:55:21;8.40;;;7.03;;
82722;SDS011;72450;42.008;21.356;2023-09-07T10:57:47;9.15;;;7.07;;
82722;SDS011;72450;42.008;21.356;2023-09-07T11:00:14;10.88;;;7.00;;
82722;SDS011;72450;42.008;21.356;2023-09-07T11:02:40;10.93;;;7.65;;
82722;SDS011;72450;42.008;21.356;2023-09-07T11:05:07;9.38;;;7.57;;
82722;SDS011;72450;42.008;21.356;2023-09-07T11:07:33;11.68;;;6.90;;
82722;SDS011;72450;42.008;21.356;2023-09-07T11:10:00;10.55;;;8.30;;
82722;SDS011;72450;42.008;21.356;2023-09-07T11:12:29;8.80;;;7.53;;
82722;SDS011;72450;42.008;21.356;2023-09-07T11:14:55;8.15;;;7.35;;
82722;SDS011;72450;42.008;21.356;2023-09-07T11:17:27;14.13;;;8.27;;
82722;SDS011;72450;42.008;21.356;2023-09-07T11:19:54;8.32;;;7.47;;
82722;SDS011;72450;42.008;21.356;2023-09-07T11:22:20;9.70;;;8.02;;
82722;SDS011;72450;42.008;21.356;2023-09-07T11:24:47;9.77;;;7.20;;
82722;SDS011;72450;42.008;21.356;2023-09-07T11:27:13;10.38;;;7.68;;
82722;SDS011;72450;42.008;21.356;2023-09-07T11:29:39;13.05;;;7.85;;
82722;SDS011;72450;42.008;21.356;2023-09-07T11:32:06;10.13;;;7.93;;
82722;SDS011;72450;42.008;21.356;2023-09-07T11:34:32;8.70;;;7.78;;
82722;SDS011;72450;42.008;21.356;2023-09-07T11:36:58;8.88;;;7.97;;
82722;SDS011;72450;42.008;21.356;2023-09-07T11:39:24;8.65;;;7.72;;
82722;SDS011;72450;42.008;21.356;2023-09-07T11:41:50;10.27;;;7.95;;
82722;SDS011;72450;42.008;21.356;2023-09-07T11:44:16;9.35;;;8.15;;
82722;SDS011;72450;42.008;21.356;2023-09-07T11:46:42;11.27;;;7.35;;
82722;SDS011;72450;42.008;21.356;2023-09-07T11:49:08;8.60;;;7.78;;
82722;SDS011;72450;42.008;21.356;2023-09-07T11:51:34;9.77;;;6.97;;
82722;SDS011;72450;42.008;21.356;2023-09-07T11:54:01;11.23;;;7.38;;
82722;SDS011;72450;42.008;21.356;2023-09-07T11:56:28;7.93;;;7.03;;
82722;SDS011;72450;42.008;21.356;2023-09-07T12:01:20;11.05;;;7.53;;
82722;SDS011;72450;42.008;21.356;2023-09-07T12:06:12;7.43;;;6.68;;
82722;SDS011;72450;42.008;21.356;2023-09-07T12:08:41;7.80;;;6.85;;
82722;SDS011;72450;42.008;21.356;2023-09-07T12:11:07;10.55;;;6.18;;
82722;SDS011;72450;42.008;21.356;2023-09-07T12:13:33;8.48;;;6.50;;
82722;SDS011;72450;42.008;21.356;2023-09-07T12:15:59;7.32;;;6.40;;
82722;SDS011;72450;42.008;21.356;2023-09-07T12:18:27;7.47;;;6.07;;
82722;SDS011;72450;42.008;21.356;2023-09-07T12:23:19;11.23;;;6.57;;
82722;SDS011;72450;42.008;21.356;2023-09-07T12:25:45;7.90;;;6.55;;
82722;SDS011;72450;42.008;21.356;2023-09-07T12:28:16;9.55;;;6.72;;
82722;SDS011;72450;42.008;21.356;2023-09-07T12:30:42;7.72;;;6.47;;
82722;SDS011;72450;42.008;21.356;2023-09-07T12:33:09;7.38;;;6.65;;
82722;SDS011;72450;42.008;21.356;2023-09-07T12:35:36;11.02;;;6.43;;
82722;SDS011;72450;42.008;21.356;2023-09-07T12:38:02;8.30;;;6.47;;
82722;SDS011;72450;42.008;21.356;2023-09-07T12:40:28;9.63;;;6.80;;
82722;SDS011;72450;42.008;21.356;2023-09-07T12:42:54;10.38;;;6.72;;
82722;SDS011;72450;42.008;21.356;2023-09-07T12:45:20;6.90;;;6.00;;
82722;SDS011;72450;42.008;21.356;2023-09-07T12:47:46;7.28;;;6.53;;
82722;SDS011;72450;42.008;21.356;2023-09-07T12:52:38;11.98;;;6.53;;
82722;SDS011;72450;42.008;21.356;2023-09-07T12:55:05;8.70;;;6.63;;
82722;SDS011;72450;42.008;21.356;2023-09-07T12:57:31;8.15;;;7.10;;
82722;SDS011;72450;42.008;21.356;2023-09-07T12:59:57;16.13;;;7.95;;
82722;SDS011;72450;42.008;21.356;2023-09-07T13:02:23;7.70;;;6.97;;
82722;SDS011;72450;42.008;21.356;2023-09-07T13:04:49;9.00;;;7.03;;
82722;SDS011;72450;42.008;21.356;2023-09-07T13:07:15;8.30;;;6.72;;
82722;SDS011;72450;42.008;21.356;2023-09-07T13:09:44;7.57;;;6.78;;
82722;SDS011;72450;42.008;21.356;2023-09-07T13:12:10;9.25;;;7.45;;
82722;SDS011;72450;42.008;21.356;2023-09-07T13:14:37;10.48;;;7.07;;
82722;SDS011;72450;42.008;21.356;2023-09-07T13:17:03;9.25;;;6.65;;
82722;SDS011;72450;42.008;21.356;2023-09-07T13:21:55;10.45;;;6.93;;
82722;SDS011;72450;42.008;21.356;2023-09-07T13:24:21;9.57;;;7.38;;
82722;SDS011;72450;42.008;21.356;2023-09-07T13:26:48;11.55;;;6.78;;
82722;SDS011;72450;42.008;21.356;2023-09-07T13:29:14;8.98;;;6.70;;
82722;SDS011;72450;42.008;21.356;2023-09-07T13:31:40;9.40;;;6.43;;
82722;SDS011;72450;42.008;21.356;2023-09-07T13:34:06;8.43;;;6.82;;
82722;SDS011;72450;42.008;21.356;2023-09-07T13:36:33;7.32;;;6.70;;
82722;SDS011;72450;42.008;21.356;2023-09-07T13:38:59;6.93;;;6.22;;
82722;SDS011;72450;42.008;21.356;2023-09-07T13:44:07;8.35;;;6.55;;
82722;SDS011;72450;42.008;21.356;2023-09-07T13:46:33;8.45;;;6.65;;
82722;SDS011;72450;42.008;21.356;2023-09-07T13:51:25;8.35;;;6.55;;
82722;SDS011;72450;42.008;21.356;2023-09-07T13:53:51;6.57;;;5.88;;
82722;SDS011;72450;42.008;21.356;2023-09-07T13:56:18;7.22;;;6.53;;
82722;SDS011;72450;42.008;21.356;2023-09-07T13:58:44;9.32;;;6.88;;
82722;SDS011;72450;42.008;21.356;2023-09-07T14:01:11;9.45;;;6.25;;
82722;SDS011;72450;42.008;21.356;2023-09-07T14:03:37;7.38;;;6.57;;
82722;SDS011;72450;42.008;21.356;2023-09-07T14:06:03;9.30;;;6.57;;
82722;SDS011;72450;42.008;21.356;2023-09-07T14:08:29;8.15;;;6.47;;
82722;SDS011;72450;42.008;21.356;2023-09-07T14:10:58;7.15;;;6.15;;
82722;SDS011;72450;42.008;21.356;2023-09-07T14:13:24;10.35;;;6.30;;
82722;SDS011;72450;42.008;21.356;2023-09-07T14:15:50;8.52;;;6.18;;
82722;SDS011;72450;42.008;21.356;2023-09-07T14:18:16;7.53;;;6.28;;
82722;SDS011;72450;42.008;21.356;2023-09-07T14:20:42;11.05;;;6.28;;
82722;SDS011;72450;42.008;21.356;2023-09-07T14:23:08;10.43;;;6.68;;
82722;SDS011;72450;42.008;21.356;2023-09-07T14:25:34;9.98;;;6.10;;
82722;SDS011;72450;42.008;21.356;2023-09-07T14:28:02;8.13;;;5.75;;
82722;SDS011;72450;42.008;21.356;2023-09-07T14:32:54;7.07;;;6.38;;
82722;SDS011;72450;42.008;21.356;2023-09-07T14:35:20;7.82;;;6.38;;
82722;SDS011;72450;42.008;21.356;2023-09-07T14:37:46;9.30;;;6.03;;
82722;SDS011;72450;42.008;21.356;2023-09-07T14:40:12;7.78;;;6.25;;
82722;SDS011;72450;42.008;21.356;2023-09-07T14:42:38;7.32;;;6.63;;
82722;SDS011;72450;42.008;21.356;2023-09-07T14:45:05;7.63;;;6.07;;
82722;SDS011;72450;42.008;21.356;2023-09-07T14:47:31;9.77;;;5.97;;
82722;SDS011;72450;42.008;21.356;2023-09-07T14:49:57;10.35;;;6.43;;
82722;SDS011;72450;42.008;21.356;2023-09-07T14:52:23;8.85;;;7.15;;
82722;SDS011;72450;42.008;21.356;2023-09-07T14:54:50;7.47;;;6.70;;
82722;SDS011;72450;42.008;21.356;2023-09-07T14:57:16;7.68;;;5.50;;
82722;SDS011;72450;42.008;21.356;2023-09-07T14:59:42;9.50;;;6.63;;
82722;SDS011;72450;42.008;21.356;2023-09-07T15:02:08;8.07;;;7.10;;
82722;SDS011;72450;42.008;21.356;2023-09-07T15:04:34;9.82;;;5.88;;
82722;SDS011;72450;42.008;21.356;2023-09-07T15:07:01;8.70;;;6.45;;
82722;SDS011;72450;42.008;21.356;2023-09-07T15:09:27;11.35;;;6.82;;
82722;SDS011;72450;42.008;21.356;2023-09-07T15:11:53;8.20;;;6.50;;